Time;durP1;ratioP1;P1;durP2;ratioP2;P2;SDS_P1;SDS_P2;PMS_P1;PMS_P2;Temp;Humidity;BMP_temperature;BMP_pressure;BME280_temperature;BME280_humidity;BME280_pressure;Samples;Min_cycle;Max_cycle;Signal;HPM_P1;HPM_P2
2021/09/22 00:02:02;;;;;;;11.85;2.70;;;39.00;18.50;;;;;;5051421;28;20103;-63
2021/09/22 00:04:28;;;;;;;10.18;2.42;;;39.00;18.60;;;;;;5046632;28;20070;-62
2021/09/22 00:06:55;;;;;;;7.47;2.45;;;38.80;17.80;;;;;;5051159;28;20156;-62
2021/09/22 00:09:21;;;;;;;9.85;2.58;;;38.80;17.70;;;;;;5043348;28;20077;-63
2021/09/22 00:11:48;;;;;;;10.57;2.90;;;38.70;17.00;;;;;;5053217;28;20543;-65
2021/09/22 00:14:14;;;;;;;9.15;2.30;;;38.70;17.90;;;;;;5048043;28;20101;-62
2021/09/22 00:16:40;;;;;;;12.38;3.13;;;38.60;18.60;;;;;;5036947;28;20070;-64
2021/09/22 00:19:07;;;;;;;6.85;3.08;;;38.50;19.50;;;;;;5036756;28;20065;-62
2021/09/22 00:21:33;;;;;;;13.57;3.00;;;38.50;19.30;;;;;;5053231;28;20077;-63
2021/09/22 00:24:00;;;;;;;5.97;2.58;;;38.30;19.20;;;;;;5051949;28;20118;-65
2021/09/22 00:26:26;;;;;;;8.27;2.60;;;38.30;20.40;;;;;;5051668;28;20074;-64
2021/09/22 00:28:52;;;;;;;11.32;2.42;;;38.20;20.40;;;;;;5045834;28;20070;-65
2021/09/22 00:31:20;;;;;;;13.95;2.97;;;38.10;20.10;;;;;;5044881;28;20085;-63
2021/09/22 00:33:46;;;;;;;12.32;2.33;;;38.10;20.50;;;;;;5045439;28;20105;-62
2021/09/22 00:36:13;;;;;;;13.82;2.97;;;38.00;18.40;;;;;;5046396;28;20065;-65
2021/09/22 00:38:39;;;;;;;18.30;2.65;;;37.90;19.40;;;;;;5058949;28;20074;-64
2021/09/22 00:41:06;;;;;;;12.35;2.67;;;37.90;20.00;;;;;;5050079;28;20073;-65
2021/09/22 00:43:32;;;;;;;9.57;2.65;;;37.80;20.10;;;;;;5046731;28;20096;-65
2021/09/22 00:46:04;;;;;;;5.68;2.33;;;37.70;20.20;;;;;;5052491;28;20244;-63
2021/09/22 00:48:32;;;;;;;10.52;2.80;;;37.60;20.60;;;;;;5052587;28;20112;-61
2021/09/22 00:51:03;;;;;;;15.98;2.40;;;37.50;21.30;;;;;;5051576;28;20582;-61
2021/09/22 00:53:30;;;;;;;13.07;2.75;;;37.40;20.00;;;;;;5040776;28;20527;-61
2021/09/22 00:55:57;;;;;;;9.25;2.78;;;37.30;19.40;;;;;;5045322;28;20089;-64
2021/09/22 00:58:24;;;;;;;12.90;2.60;;;37.20;21.00;;;;;;5044513;28;20097;-62
2021/09/22 01:00:51;;;;;;;14.57;3.10;;;37.10;22.70;;;;;;5052826;28;20598;-61
2021/09/22 01:03:18;;;;;;;11.38;2.83;;;37.00;21.40;;;;;;5031401;28;20589;-62
2021/09/22 01:05:45;;;;;;;11.85;2.92;;;36.80;21.60;;;;;;5043065;28;20124;-61
2021/09/22 01:08:14;;;;;;;21.20;3.47;;;36.80;22.00;;;;;;5043552;28;20071;-61
2021/09/22 01:10:48;;;;;;;12.35;2.80;;;36.70;23.00;;;;;;5037971;28;20098;-62
2021/09/22 01:13:16;;;;;;;13.10;2.60;;;36.60;21.30;;;;;;5052005;28;20551;-61
2021/09/22 01:15:43;;;;;;;15.25;3.08;;;36.50;22.60;;;;;;5050385;28;20517;-61
2021/09/22 01:18:18;;;;;;;12.13;2.90;;;36.40;22.30;;;;;;5051264;28;20174;-61
2021/09/22 01:20:48;;;;;;;14.00;3.00;;;36.40;22.60;;;;;;5043207;28;20076;-62
2021/09/22 01:23:18;;;;;;;14.35;3.30;;;36.20;22.40;;;;;;5025863;28;20159;-64
2021/09/22 01:25:46;;;;;;;13.63;3.08;;;36.10;24.50;;;;;;5042806;28;20085;-62
2021/09/22 01:28:15;;;;;;;19.23;3.92;;;36.00;22.20;;;;;;5031658;28;20101;-64
2021/09/22 01:30:45;;;;;;;21.38;3.53;;;36.00;25.60;;;;;;5045243;28;20077;-65
2021/09/22 01:33:13;;;;;;;25.40;4.25;;;35.90;25.10;;;;;;5051542;28;20055;-63
2021/09/22 01:35:43;;;;;;;21.00;3.78;;;35.80;25.60;;;;;;5042848;28;20109;-64
2021/09/22 01:38:12;;;;;;;21.40;3.28;;;35.70;24.40;;;;;;5043002;28;20161;-65
2021/09/22 01:40:39;;;;;;;14.43;3.17;;;35.60;23.80;;;;;;5025590;28;20104;-65
2021/09/22 01:43:06;;;;;;;14.70;3.17;;;35.60;23.60;;;;;;5051687;28;20073;-65
2021/09/22 01:45:33;;;;;;;24.17;3.65;;;35.50;21.90;;;;;;5049541;28;20524;-66
2021/09/22 01:48:04;;;;;;;14.57;3.35;;;35.40;24.00;;;;;;5031964;28;20082;-65
2021/09/22 01:50:30;;;;;;;14.77;3.45;;;35.30;23.90;;;;;;5041805;28;20074;-65
2021/09/22 01:52:57;;;;;;;21.88;3.42;;;35.20;22.50;;;;;;5042101;28;20134;-66
2021/09/22 01:55:25;;;;;;;16.48;3.20;;;35.20;23.60;;;;;;5043705;28;20458;-66
2021/09/22 01:57:51;;;;;;;15.35;3.28;;;35.10;22.70;;;;;;5032440;28;20116;-66
2021/09/22 02:00:18;;;;;;;16.05;3.78;;;35.10;23.30;;;;;;5048627;28;20081;-65
2021/09/22 02:02:45;;;;;;;24.45;3.60;;;35.00;25.40;;;;;;5044147;28;20426;-66
2021/09/22 02:05:11;;;;;;;13.85;3.10;;;34.90;23.90;;;;;;5044608;28;20084;-66
2021/09/22 02:07:38;;;;;;;25.63;3.83;;;34.90;23.60;;;;;;5041907;28;20082;-63
2021/09/22 02:10:06;;;;;;;12.90;3.78;;;34.80;25.00;;;;;;5042521;28;20090;-65
2021/09/22 02:12:32;;;;;;;20.27;3.63;;;34.70;24.30;;;;;;5033404;28;20070;-65
2021/09/22 02:14:59;;;;;;;33.03;4.38;;;34.60;25.20;;;;;;5048063;28;20112;-66
2021/09/22 02:17:25;;;;;;;36.30;4.32;;;34.50;24.10;;;;;;5042075;28;20515;-63
2021/09/22 02:19:51;;;;;;;31.17;4.18;;;34.40;24.30;;;;;;5050194;28;20077;-67
2021/09/22 02:22:19;;;;;;;39.67;5.32;;;34.40;24.40;;;;;;5043063;28;20074;-65
2021/09/22 02:24:46;;;;;;;38.03;5.10;;;34.30;24.50;;;;;;5048456;28;20124;-64
2021/09/22 02:27:18;;;;;;;36.38;5.50;;;34.20;24.70;;;;;;5042913;28;20140;-66
2021/09/22 02:29:45;;;;;;;38.65;4.90;;;34.10;25.30;;;;;;5044346;28;20082;-63
2021/09/22 02:32:12;;;;;;;33.72;5.95;;;34.00;25.80;;;;;;5044304;28;20157;-64
2021/09/22 02:34:39;;;;;;;28.35;5.95;;;33.90;25.40;;;;;;5042226;28;20554;-63
2021/09/22 02:37:10;;;;;;;27.90;5.25;;;33.80;25.10;;;;;;5046517;28;20167;-63
2021/09/22 02:39:39;;;;;;;35.20;5.82;;;33.70;25.60;;;;;;5042188;28;20066;-64
2021/09/22 02:42:06;;;;;;;38.05;5.35;;;33.70;25.70;;;;;;5038926;28;20065;-64
2021/09/22 02:44:34;;;;;;;44.85;6.65;;;33.70;25.90;;;;;;5031937;28;20074;-64
2021/09/22 02:47:00;;;;;;;51.72;6.88;;;33.70;25.40;;;;;;5050731;28;20183;-63
2021/09/22 02:49:27;;;;;;;43.33;7.03;;;33.60;25.70;;;;;;5049159;28;20524;-61
2021/09/22 02:51:54;;;;;;;30.65;6.60;;;33.60;25.70;;;;;;5042417;28;20081;-63
2021/09/22 02:54:20;;;;;;;43.75;6.43;;;33.50;26.20;;;;;;5044086;28;20494;-63
2021/09/22 02:56:47;;;;;;;45.17;6.68;;;33.40;26.60;;;;;;5049920;28;20120;-64
2021/09/22 02:59:13;;;;;;;40.15;6.75;;;33.30;26.40;;;;;;5042363;28;20067;-65
2021/09/22 03:01:40;;;;;;;42.72;6.72;;;33.30;26.50;;;;;;5048113;28;20113;-63
2021/09/22 03:04:06;;;;;;;34.30;6.82;;;33.30;27.10;;;;;;5046849;28;20442;-62
2021/09/22 03:06:32;;;;;;;40.92;7.10;;;33.20;26.90;;;;;;5052490;28;20076;-62
2021/09/22 03:08:59;;;;;;;40.47;6.80;;;33.20;27.00;;;;;;5051333;28;20100;-65
2021/09/22 03:11:25;;;;;;;48.03;7.00;;;33.10;26.90;;;;;;5052364;28;20069;-65
2021/09/22 03:13:52;;;;;;;36.60;6.50;;;33.00;27.40;;;;;;5051294;28;20062;-62
2021/09/22 03:16:18;;;;;;;54.15;7.63;;;33.00;27.70;;;;;;5052503;28;20073;-65
2021/09/22 03:18:45;;;;;;;48.17;6.70;;;32.90;27.20;;;;;;5051352;28;20097;-63
2021/09/22 03:21:11;;;;;;;50.40;7.25;;;32.90;27.50;;;;;;5051226;28;20066;-64
2021/09/22 03:23:38;;;;;;;37.42;7.53;;;32.80;27.50;;;;;;5050970;28;20586;-63
2021/09/22 03:26:05;;;;;;;48.08;7.50;;;32.80;27.90;;;;;;5034841;28;20108;-63
2021/09/22 03:28:32;;;;;;;44.08;7.65;;;32.70;27.90;;;;;;5034674;28;20080;-64
2021/09/22 03:30:59;;;;;;;48.28;9.38;;;32.60;28.00;;;;;;5052173;28;20069;-63
2021/09/22 03:33:25;;;;;;;33.50;8.00;;;32.60;28.60;;;;;;5052466;28;20075;-64
2021/09/22 03:35:51;;;;;;;48.58;9.40;;;32.60;29.50;;;;;;5034224;28;20086;-63
2021/09/22 03:38:18;;;;;;;47.53;8.85;;;32.40;29.00;;;;;;5053386;28;20160;-65
2021/09/22 03:40:45;;;;;;;41.70;8.27;;;32.40;28.40;;;;;;5038326;28;20080;-65
2021/09/22 03:43:11;;;;;;;48.03;7.45;;;32.30;28.60;;;;;;5055434;28;20119;-66
2021/09/22 03:45:37;;;;;;;33.05;7.60;;;32.20;29.10;;;;;;5054764;28;20089;-66
2021/09/22 03:48:04;;;;;;;44.30;7.85;;;32.20;29.40;;;;;;5054893;28;20077;-64
2021/09/22 03:50:30;;;;;;;44.08;8.05;;;32.10;28.90;;;;;;5054610;28;20093;-65
2021/09/22 03:52:57;;;;;;;29.80;7.88;;;32.10;29.40;;;;;;5054641;28;20438;-63
2021/09/22 03:55:24;;;;;;;27.73;7.63;;;32.00;28.90;;;;;;5054549;28;20440;-65
2021/09/22 03:57:50;;;;;;;42.78;8.07;;;31.90;28.60;;;;;;5054616;28;20089;-63
2021/09/22 04:00:17;;;;;;;29.63;7.28;;;31.90;29.20;;;;;;5054448;28;20101;-63
2021/09/22 04:02:43;;;;;;;27.75;7.47;;;31.90;29.80;;;;;;5042789;28;20634;-63
2021/09/22 04:05:10;;;;;;;33.10;8.43;;;31.80;29.50;;;;;;5034423;28;20101;-64
2021/09/22 04:07:36;;;;;;;35.95;8.60;;;31.80;29.20;;;;;;5034502;28;20100;-64
2021/09/22 04:10:04;;;;;;;38.75;8.88;;;31.70;29.20;;;;;;5034530;28;20073;-64
2021/09/22 04:12:30;;;;;;;36.33;9.55;;;31.70;29.50;;;;;;5034426;28;20109;-63
2021/09/22 04:14:56;;;;;;;39.08;9.25;;;31.60;29.40;;;;;;5034628;28;20166;-64
2021/09/22 04:17:23;;;;;;;25.20;9.05;;;31.60;29.10;;;;;;5034017;28;20101;-64
2021/09/22 04:19:49;;;;;;;43.55;11.63;;;31.60;29.20;;;;;;5034630;28;20066;-63
2021/09/22 04:22:16;;;;;;;36.53;11.63;;;31.60;29.70;;;;;;5034591;28;20070;-66
2021/09/22 04:24:42;;;;;;;31.25;10.80;;;31.50;29.20;;;;;;5017694;28;20117;-66
2021/09/22 04:27:09;;;;;;;46.55;11.60;;;31.50;29.10;;;;;;5034376;28;20085;-66
2021/09/22 04:29:35;;;;;;;46.85;11.25;;;31.50;29.00;;;;;;5035367;28;20543;-66
2021/09/22 04:32:02;;;;;;;56.85;13.10;;;31.40;29.20;;;;;;5034078;28;20074;-64
2021/09/22 04:34:28;;;;;;;239.32;19.80;;;31.40;29.80;;;;;;5034691;28;20094;-65
2021/09/22 04:36:55;;;;;;;53.40;11.55;;;31.40;29.60;;;;;;5036227;28;20068;-63
2021/09/22 04:39:21;;;;;;;45.65;9.50;;;31.10;35.40;;;;;;5036484;28;20544;-63
2021/09/22 04:41:48;;;;;;;31.95;8.95;;;31.20;52.40;;;;;;5036805;28;20126;-64
2021/09/22 04:44:14;;;;;;;46.95;10.30;;;;;;;;;;5040015;28;20066;-64
2021/09/22 04:46:41;;;;;;;51.05;10.27;;;31.10;63.40;;;;;;5035622;28;20029;-63
2021/09/22 04:49:08;;;;;;;25.45;8.40;;;;;;;;;;5034327;28;20095;-64
2021/09/22 04:51:34;;;;;;;46.70;9.13;;;31.20;29.20;;;;;;5034156;28;20120;-62
2021/09/22 04:54:00;;;;;;;30.75;9.63;;;;;;;;;;5033676;28;20070;-63
2021/09/22 04:56:27;;;;;;;34.83;9.50;;;31.00;34.30;;;;;;5033767;28;20511;-64
2021/09/22 04:58:53;;;;;;;47.60;9.93;;;31.20;40.50;;;;;;5034848;28;20139;-65
2021/09/22 05:01:20;;;;;;;43.83;9.95;;;30.90;30.00;;;;;;5034530;28;20112;-65
2021/09/22 05:03:46;;;;;;;35.05;8.68;;;30.60;59.90;;;;;;5033395;28;20486;-63
2021/09/22 05:06:13;;;;;;;31.33;8.32;;;30.70;56.50;;;;;;5033448;28;20064;-63
2021/09/22 05:08:39;;;;;;;29.95;7.32;;;31.00;50.90;;;;;;5034562;28;20021;-64
2021/09/22 05:11:05;;;;;;;36.13;6.75;;;30.80;35.20;;;;;;5033288;28;20070;-63
2021/09/22 05:13:32;;;;;;;40.40;7.93;;;30.80;31.10;;;;;;5034405;28;20070;-64
2021/09/22 05:15:58;;;;;;;42.67;7.45;;;;;;;;;;5032888;28;20029;-65
2021/09/22 05:18:25;;;;;;;32.75;7.47;;;30.70;31.80;;;;;;5032928;28;20086;-64
2021/09/22 05:20:51;;;;;;;37.45;9.07;;;30.70;32.40;;;;;;5033082;28;20077;-65
2021/09/22 05:23:18;;;;;;;26.30;8.15;;;30.60;32.10;;;;;;5032876;28;20191;-64
2021/09/22 05:25:44;;;;;;;41.70;7.75;;;30.60;31.90;;;;;;5032964;28;20110;-64
2021/09/22 05:28:13;;;;;;;35.30;7.63;;;30.60;31.60;;;;;;5032915;28;20587;-62
2021/09/22 05:30:43;;;;;;;35.58;7.85;;;30.60;32.40;;;;;;5033059;28;20105;-64
2021/09/22 05:33:10;;;;;;;33.10;6.60;;;30.50;32.70;;;;;;5034135;28;20066;-65
2021/09/22 05:35:38;;;;;;;42.67;7.13;;;30.50;31.80;;;;;;5032677;28;20131;-63
2021/09/22 05:38:05;;;;;;;34.30;7.05;;;30.50;32.30;;;;;;5032601;28;20080;-63
2021/09/22 05:40:33;;;;;;;40.42;7.85;;;30.50;33.80;;;;;;5032625;28;20081;-63
2021/09/22 05:42:59;;;;;;;44.30;7.25;;;30.40;32.90;;;;;;5033923;28;20105;-64
2021/09/22 05:45:26;;;;;;;32.90;7.05;;;30.40;32.90;;;;;;5032184;28;20090;-65
2021/09/22 05:47:52;;;;;;;34.65;6.45;;;30.30;32.40;;;;;;5033842;28;20156;-64
2021/09/22 05:50:19;;;;;;;26.63;6.82;;;30.30;33.80;;;;;;5032576;28;20090;-65
2021/09/22 05:52:45;;;;;;;32.30;6.30;;;30.30;33.60;;;;;;5032515;28;20575;-63
2021/09/22 05:55:12;;;;;;;28.20;5.85;;;30.20;33.10;;;;;;5032223;28;20098;-64
2021/09/22 05:57:38;;;;;;;38.50;6.70;;;30.20;33.10;;;;;;5032498;28;20069;-62
2021/09/22 06:00:05;;;;;;;31.35;6.70;;;30.20;33.10;;;;;;5031470;28;20078;-63
2021/09/22 06:02:32;;;;;;;32.15;6.57;;;30.10;33.60;;;;;;5016174;28;20589;-66
2021/09/22 06:05:01;;;;;;;51.17;7.82;;;30.10;33.10;;;;;;5033535;28;20077;-65
2021/09/22 06:07:27;;;;;;;29.90;6.95;;;30.00;33.10;;;;;;5033588;28;20535;-65
2021/09/22 06:09:53;;;;;;;23.38;6.60;;;30.00;33.70;;;;;;5032265;28;20082;-62
2021/09/22 06:12:21;;;;;;;32.95;6.40;;;30.00;33.60;;;;;;5033428;28;20098;-64
2021/09/22 06:14:47;;;;;;;33.95;6.93;;;30.00;33.50;;;;;;5033237;28;20085;-64
2021/09/22 06:17:14;;;;;;;30.73;6.40;;;30.00;34.40;;;;;;5032198;28;20130;-63
2021/09/22 06:19:40;;;;;;;35.58;7.22;;;29.90;34.50;;;;;;5032027;28;20161;-64
2021/09/22 06:22:06;;;;;;;29.83;6.38;;;29.90;34.30;;;;;;5031923;28;20085;-64
2021/09/22 06:24:33;;;;;;;37.10;6.38;;;29.90;33.80;;;;;;5031622;28;20179;-63
2021/09/22 06:26:59;;;;;;;27.08;7.13;;;29.80;34.20;;;;;;5032234;28;20074;-62
2021/09/22 06:29:25;;;;;;;34.33;6.43;;;29.80;33.80;;;;;;5031795;28;20221;-63
2021/09/22 06:31:52;;;;;;;31.38;7.22;;;29.70;34.50;;;;;;5033071;28;20543;-65
2021/09/22 06:34:18;;;;;;;34.15;6.78;;;29.70;34.10;;;;;;5031770;28;20096;-67
2021/09/22 06:36:45;;;;;;;34.65;6.93;;;29.70;34.50;;;;;;5031765;28;20072;-61
2021/09/22 06:39:11;;;;;;;29.48;6.93;;;29.70;34.40;;;;;;5033089;28;20115;-64
2021/09/22 06:41:37;;;;;;;34.85;8.43;;;29.90;33.30;;;;;;5034733;28;20117;-62
2021/09/22 06:44:04;;;;;;;29.00;8.50;;;29.90;32.70;;;;;;5050900;28;20165;-63
2021/09/22 06:46:31;;;;;;;30.63;8.80;;;30.00;32.00;;;;;;5051052;28;20112;-63
2021/09/22 06:48:58;;;;;;;30.25;8.52;;;30.10;31.70;;;;;;5051148;28;20519;-65
2021/09/22 06:51:25;;;;;;;28.42;7.75;;;30.20;32.40;;;;;;5051371;28;20157;-62
2021/09/22 06:53:56;;;;;;;25.13;7.75;;;30.30;33.10;;;;;;5052467;28;20070;-61
2021/09/22 06:56:24;;;;;;;25.75;6.93;;;30.40;32.20;;;;;;5049905;28;20089;-61
2021/09/22 06:58:51;;;;;;;32.38;6.63;;;30.30;32.00;;;;;;5050790;28;20519;-61
2021/09/22 07:01:17;;;;;;;20.40;6.28;;;30.30;32.40;;;;;;5050515;28;20097;-61
2021/09/22 07:03:43;;;;;;;25.85;6.72;;;30.20;32.90;;;;;;5033788;28;20581;-64
2021/09/22 07:06:11;;;;;;;26.63;6.53;;;30.20;31.90;;;;;;5052109;28;20093;-63
2021/09/22 07:08:40;;;;;;;22.23;6.05;;;30.30;35.30;;;;;;5052093;28;20099;-63
2021/09/22 07:11:07;;;;;;;18.05;5.28;;;30.30;33.40;;;;;;5051330;28;20070;-64
2021/09/22 07:13:36;;;;;;;26.73;5.25;;;30.30;32.60;;;;;;5054822;28;20079;-63
2021/09/22 07:16:03;;;;;;;22.98;5.68;;;30.10;32.00;;;;;;5056084;28;20139;-62
2021/09/22 07:18:29;;;;;;;22.17;5.45;;;30.20;31.50;;;;;;5052078;28;20068;-63
2021/09/22 07:20:55;;;;;;;24.98;5.30;;;30.10;31.80;;;;;;5054772;28;20115;-62
2021/09/22 07:23:22;;;;;;;24.65;5.10;;;30.10;31.10;;;;;;5054620;28;20124;-64
2021/09/22 07:25:48;;;;;;;30.63;5.20;;;;;;;;;;5054427;28;20113;-61
2021/09/22 07:28:15;;;;;;;34.60;5.35;;;30.10;31.80;;;;;;5055916;28;20069;-62
2021/09/22 07:31:42;;;;;;;42.00;6.37;;;29.90;31.00;;;;;;5110485;27;20422;-62
2021/09/22 07:34:09;;;;;;;27.88;5.15;;;29.70;31.70;;;;;;5109159;28;20077;-62
2021/09/22 07:36:35;;;;;;;23.77;6.05;;;29.50;32.10;;;;;;5109264;28;20104;-62
2021/09/22 07:39:02;;;;;;;30.92;5.60;;;29.50;32.20;;;;;;5109144;28;20121;-63
2021/09/22 07:41:29;;;;;;;23.23;5.05;;;29.40;32.10;;;;;;5108768;28;20084;-61
2021/09/22 07:45:51;;;;;;;24.52;6.18;;;29.60;50.70;;;;;;5126138;27;20441;-61
2021/09/22 07:48:17;;;;;;;27.00;5.82;;;29.40;33.70;;;;;;5109007;28;20573;-63
2021/09/22 07:50:44;;;;;;;25.35;5.75;;;29.30;33.60;;;;;;5092521;28;20080;-62
2021/09/22 07:53:10;;;;;;;20.48;4.97;;;29.30;34.10;;;;;;5107339;28;20153;-62
2021/09/22 07:55:36;;;;;;;19.52;5.70;;;29.30;34.90;;;;;;5112753;28;20073;-64
2021/09/22 07:58:03;;;;;;;32.42;6.32;;;29.20;34.90;;;;;;5127290;27;20109;-61
2021/09/22 08:00:30;;;;;;;24.08;6.25;;;29.30;35.20;;;;;;5106286;28;20068;-61
2021/09/22 08:02:58;;;;;;;18.67;5.15;;;29.20;34.30;;;;;;5108249;28;20068;-60
2021/09/22 08:05:25;;;;;;;30.80;5.70;;;29.20;34.60;;;;;;5108851;28;20171;-63
2021/09/22 08:07:52;;;;;;;27.00;5.95;;;29.10;34.60;;;;;;5110760;28;20089;-64
2021/09/22 08:10:19;;;;;;;23.42;6.22;;;29.00;35.40;;;;;;5091741;28;20137;-62
2021/09/22 08:12:49;;;;;;;25.95;6.00;;;29.00;35.50;;;;;;5091757;28;20441;-61
2021/09/22 08:15:16;;;;;;;35.72;6.15;;;29.00;35.80;;;;;;5108706;28;20068;-62
2021/09/22 08:17:43;;;;;;;17.00;5.63;;;29.00;35.70;;;;;;5108452;28;20088;-62
2021/09/22 08:20:11;;;;;;;28.17;6.30;;;28.90;35.40;;;;;;5105993;28;20202;-63
2021/09/22 08:22:37;;;;;;;22.25;5.90;;;28.80;35.40;;;;;;5108366;28;20069;-62
2021/09/22 08:25:05;;;;;;;28.38;5.78;;;28.80;39.00;;;;;;5091340;28;20153;-62
2021/09/22 08:27:31;;;;;;;29.20;5.75;;;28.90;35.60;;;;;;5107155;28;20040;-62
2021/09/22 08:29:58;;;;;;;24.48;5.72;;;28.70;35.80;;;;;;5108488;28;20069;-62
2021/09/22 08:32:24;;;;;;;21.95;4.97;;;28.60;55.60;;;;;;5108340;28;20215;-63
2021/09/22 08:34:51;;;;;;;29.00;5.63;;;28.40;44.30;;;;;;5108379;28;20024;-61
2021/09/22 08:37:17;;;;;;;18.58;5.53;;;28.50;34.50;;;;;;5091735;28;20020;-62
2021/09/22 08:39:44;;;;;;;37.65;6.82;;;28.50;35.40;;;;;;5110245;28;20060;-62
2021/09/22 08:42:10;;;;;;;30.27;6.60;;;28.50;54.40;;;;;;5108346;28;20066;-63
2021/09/22 08:44:37;;;;;;;29.27;5.78;;;28.50;34.60;;;;;;5091042;28;20044;-61
2021/09/22 08:47:04;;;;;;;29.25;5.28;;;28.70;47.80;;;;;;5108058;28;20090;-61
2021/09/22 08:49:30;;;;;;;29.65;5.47;;;28.50;53.40;;;;;;5109664;28;20068;-61
2021/09/22 08:51:57;;;;;;;24.33;5.95;;;;;;;;;;5108193;28;20552;-62
2021/09/22 08:54:23;;;;;;;27.58;4.60;;;28.40;72.20;;;;;;5090960;28;20024;-62
2021/09/22 08:56:50;;;;;;;23.02;4.90;;;28.60;62.20;;;;;;5093533;28;20031;-61
2021/09/22 08:59:16;;;;;;;23.48;4.90;;;28.40;56.20;;;;;;5093977;28;20029;-62
2021/09/22 09:02:04;;;;;;;25.60;4.75;;;28.50;53.80;;;;;;5094348;28;20471;-60
2021/09/22 09:04:30;;;;;;;19.10;4.68;;;28.60;32.10;;;;;;5092203;28;20139;-61
2021/09/22 09:07:00;;;;;;;29.08;6.00;;;28.50;30.60;;;;;;5095214;28;20091;-62
2021/09/22 09:09:43;;;;;;;21.77;4.72;;;28.50;30.70;;;;;;5066764;28;20069;-61
2021/09/22 09:12:21;;;;;;;30.27;5.65;;;28.30;30.90;;;;;;5091947;28;20553;-61
2021/09/22 09:14:56;;;;;;;40.25;6.05;;;28.30;32.10;;;;;;5074711;28;20076;-63
2021/09/22 09:17:49;;;;;;;30.13;4.90;;;28.30;49.30;;;;;;5094028;28;20068;-61
2021/09/22 09:20:22;;;;;;;31.02;4.78;;;28.10;32.20;;;;;;5076311;28;20513;-61
2021/09/22 09:23:06;;;;;;;33.63;4.88;;;28.10;56.40;;;;;;5091341;28;20389;-62
2021/09/22 09:25:44;;;;;;;23.15;5.50;;;28.10;32.10;;;;;;5092138;28;20514;-61
2021/09/22 09:28:20;;;;;;;26.02;5.32;;;28.60;49.70;;;;;;5091875;28;20468;-61
2021/09/22 09:30:49;;;;;;;21.35;4.63;;;27.90;33.30;;;;;;5091073;28;20445;-62
2021/09/22 09:33:37;;;;;;;24.48;5.82;;;28.00;33.10;;;;;;5076900;28;20065;-62
2021/09/22 09:36:18;;;;;;;31.75;5.65;;;27.70;32.00;;;;;;5093461;28;20071;-62
2021/09/22 09:39:23;;;;;;;31.10;5.75;;;27.70;49.70;;;;;;5092093;28;20060;-62
2021/09/22 09:41:52;;;;;;;37.33;5.90;;;27.80;30.80;;;;;;5090345;28;20504;-61
2021/09/22 09:44:25;;;;;;;29.17;5.65;;;27.90;31.80;;;;;;5093203;28;20112;-62
2021/09/22 09:46:53;;;;;;;41.92;5.63;;;27.80;31.60;;;;;;5091604;28;20081;-60
2021/09/22 09:49:21;;;;;;;23.30;5.82;;;27.80;31.90;;;;;;5093469;28;20065;-61
2021/09/22 09:51:56;;;;;;;19.45;4.82;;;27.60;49.50;;;;;;5092024;28;20083;-61
2021/09/22 09:54:25;;;;;;;33.47;5.03;;;27.80;32.20;;;;;;5076245;28;20028;-60
2021/09/22 09:56:55;;;;;;;29.52;5.45;;;27.80;70.40;;;;;;5076325;28;20069;-60
2021/09/22 09:59:23;;;;;;;15.25;4.47;;;27.80;41.00;;;;;;5076111;28;20024;-61
2021/09/22 10:01:55;;;;;;;26.77;4.53;;;27.30;50.40;;;;;;5092920;28;20024;-61
2021/09/22 10:04:23;;;;;;;30.92;4.93;;;;;;;;;;5094225;28;20070;-61
2021/09/22 10:06:50;;;;;;;16.25;4.05;;;27.40;50.00;;;;;;5092422;28;20016;-60
2021/09/22 10:09:17;;;;;;;18.10;3.78;;;;;;;;;;5075300;28;20037;-60
2021/09/22 10:11:45;;;;;;;20.42;4.13;;;;;;;;;;5092793;28;20012;-62
2021/09/22 10:14:14;;;;;;;14.57;3.80;;;27.70;32.20;;;;;;5076218;28;20016;-62
2021/09/22 10:16:41;;;;;;;13.77;3.80;;;27.70;44.30;;;;;;5076201;28;20519;-61
2021/09/22 10:19:08;;;;;;;20.60;4.43;;;27.40;60.10;;;;;;5092806;28;20023;-62
2021/09/22 10:21:37;;;;;;;18.70;3.80;;;27.60;31.80;;;;;;5092518;28;20076;-61
2021/09/22 10:24:09;;;;;;;15.52;3.63;;;27.70;46.10;;;;;;5092452;28;20441;-62
2021/09/22 10:26:37;;;;;;;13.80;3.65;;;27.90;58.10;;;;;;5092600;28;20459;-60
2021/09/22 10:29:28;;;;;;;20.80;3.83;;;27.30;60.40;;;;;;5093579;28;20081;-60
2021/09/22 10:31:58;;;;;;;18.45;4.03;;;27.50;51.50;;;;;;5090967;28;20496;-60
2021/09/22 10:34:36;;;;;;;16.98;3.83;;;27.60;44.10;;;;;;5075520;28;20069;-62
2021/09/22 10:37:25;;;;;;;11.90;3.63;;;27.50;30.90;;;;;;5092267;28;20066;-61
2021/09/22 10:39:51;;;;;;;8.35;3.22;;;27.80;55.30;;;;;;5124455;27;20189;-63
2021/09/22 10:42:30;;;;;;;17.70;3.60;;;27.20;49.60;;;;;;5093614;28;20396;-63
2021/09/22 10:45:19;;;;;;;15.73;3.80;;;27.40;31.40;;;;;;5090920;28;20154;-62
2021/09/22 10:47:50;;;;;;;18.25;3.95;;;27.30;31.60;;;;;;5072767;28;20071;-62
2021/09/22 10:50:40;;;;;;;19.80;4.40;;;27.40;53.50;;;;;;5092180;28;20406;-61
2021/09/22 10:53:32;;;;;;;16.73;4.07;;;27.40;50.00;;;;;;5090923;28;20160;-63
2021/09/22 10:56:06;;;;;;;19.55;3.85;;;27.10;51.10;;;;;;5091229;28;20071;-63
2021/09/22 10:58:59;;;;;;;18.58;4.15;;;27.30;49.70;;;;;;5091506;28;20377;-61
2021/09/22 11:01:35;;;;;;;17.65;3.80;;;27.20;33.10;;;;;;5106176;28;20476;-62
2021/09/22 11:04:02;;;;;;;16.40;3.80;;;27.10;32.10;;;;;;5091690;28;20084;-63
2021/09/22 11:06:44;;;;;;;15.30;3.80;;;27.20;50.00;;;;;;5091790;28;20055;-63
2021/09/22 11:09:12;;;;;;;12.75;3.80;;;;;;;;;;5089849;28;20111;-64
2021/09/22 11:11:56;;;;;;;22.50;4.28;;;27.00;32.30;;;;;;5091946;28;20099;-61
2021/09/22 11:14:30;;;;;;;12.55;3.88;;;27.00;50.20;;;;;;5091263;28;20090;-63
2021/09/22 11:17:17;;;;;;;13.35;4.18;;;27.00;46.90;;;;;;5075042;28;20027;-62
2021/09/22 11:19:47;;;;;;;20.77;4.20;;;26.70;52.10;;;;;;5075520;28;20109;-62
2021/09/22 11:22:19;;;;;;;19.25;4.75;;;26.60;56.40;;;;;;5074915;28;20093;-62
2021/09/22 11:24:47;;;;;;;15.60;3.97;;;26.90;33.00;;;;;;5091665;28;20016;-62
2021/09/22 11:27:16;;;;;;;17.50;4.25;;;27.00;35.20;;;;;;5074966;28;20043;-62
2021/09/22 11:29:49;;;;;;;17.65;4.60;;;27.00;33.10;;;;;;5091613;28;20068;-62
2021/09/22 11:32:29;;;;;;;16.48;3.88;;;26.90;32.80;;;;;;5091431;28;20087;-62
2021/09/22 11:35:17;;;;;;;17.20;4.18;;;26.80;67.60;;;;;;5091723;28;20535;-61
2021/09/22 11:37:52;;;;;;;17.92;4.28;;;26.90;55.60;;;;;;5092243;28;20012;-61
2021/09/22 11:40:26;;;;;;;29.40;4.35;;;27.00;33.20;;;;;;5075501;28;20121;-62
2021/09/22 11:42:56;;;;;;;15.90;4.45;;;27.00;33.40;;;;;;5075168;28;20536;-62
2021/09/22 11:45:24;;;;;;;14.10;4.15;;;27.00;33.20;;;;;;5091037;28;20116;-62
2021/09/22 11:47:51;;;;;;;23.13;4.22;;;26.90;33.10;;;;;;5074831;28;20064;-62
2021/09/22 11:50:30;;;;;;;14.02;4.45;;;26.90;33.00;;;;;;5091621;28;20164;-61
2021/09/22 11:52:58;;;;;;;16.65;4.82;;;26.70;32.70;;;;;;5074793;28;20073;-63
2021/09/22 11:55:24;;;;;;;17.52;4.90;;;26.70;32.80;;;;;;5091213;28;20076;-63
2021/09/22 11:57:52;;;;;;;27.02;4.95;;;26.70;33.20;;;;;;5074518;28;20076;-63
2021/09/22 12:00:21;;;;;;;21.30;4.45;;;26.70;33.60;;;;;;5092678;28;20079;-63
2021/09/22 12:02:48;;;;;;;17.45;4.95;;;;;;;;;;5071853;28;20562;-61
2021/09/22 12:05:19;;;;;;;25.08;4.55;;;26.70;51.20;;;;;;5091261;28;20081;-62
2021/09/22 12:07:51;;;;;;;16.45;4.35;;;26.70;32.70;;;;;;5091262;28;20012;-62
2021/09/22 12:10:18;;;;;;;12.73;4.30;;;;;;;;;;5091192;28;20150;-62
2021/09/22 12:12:44;;;;;;;21.75;4.43;;;26.60;32.90;;;;;;5074408;28;20069;-63
2021/09/22 12:15:12;;;;;;;18.35;4.10;;;26.40;33.70;;;;;;5091223;28;20028;-62
2021/09/22 12:17:40;;;;;;;14.32;4.28;;;26.40;40.60;;;;;;5075192;28;20106;-63
2021/09/22 12:20:15;;;;;;;15.15;4.63;;;26.40;53.70;;;;;;5089630;28;20088;-64
2021/09/22 12:22:45;;;;;;;14.38;3.58;;;26.40;34.00;;;;;;5074752;28;20441;-61
2021/09/22 12:25:17;;;;;;;14.05;4.30;;;26.40;34.60;;;;;;5091636;28;20621;-60
2021/09/22 12:27:52;;;;;;;18.08;4.45;;;26.40;70.00;;;;;;5074659;28;20617;-61
2021/09/22 12:30:38;;;;;;;21.40;4.03;;;26.40;36.40;;;;;;5090926;28;20065;-62
2021/09/22 12:33:07;;;;;;;12.80;4.03;;;26.30;34.60;;;;;;5073693;28;20090;-61
2021/09/22 12:35:36;;;;;;;18.05;4.10;;;26.20;34.50;;;;;;5094587;28;20512;-61
2021/09/22 12:38:06;;;;;;;16.50;4.07;;;26.10;34.80;;;;;;5094648;28;20073;-61
2021/09/22 12:40:37;;;;;;;20.63;4.15;;;26.20;35.00;;;;;;5095036;28;20594;-61
2021/09/22 12:43:16;;;;;;;13.57;3.40;;;26.10;35.10;;;;;;5094577;28;20597;-61
2021/09/22 12:45:43;;;;;;;17.08;4.13;;;26.20;35.20;;;;;;5094070;28;20109;-61
2021/09/22 12:48:09;;;;;;;21.75;4.75;;;26.20;35.20;;;;;;5077725;28;20159;-60
2021/09/22 12:50:41;;;;;;;18.67;3.63;;;26.20;35.10;;;;;;5077803;28;20087;-61
2021/09/22 12:53:11;;;;;;;17.17;4.68;;;26.20;35.60;;;;;;5108879;28;20065;-61